sensor_id;sensor_type;location;lat;lon;timestamp;P1;durP1;ratioP1;P2;durP2;ratioP2
36995;SDS011;22905;50.340;10.776;2023-07-22T00:01:56;20.33;;;6.13;;
36995;SDS011;22905;50.340;10.776;2023-07-22T00:06:57;18.38;;;5.45;;
36995;SDS011;22905;50.340;10.776;2023-07-22T00:11:57;17.00;;;5.63;;
36995;SDS011;22905;50.340;10.776;2023-07-22T00:16:57;18.00;;;5.50;;
36995;SDS011;22905;50.340;10.776;2023-07-22T00:21:58;13.50;;;5.53;;
36995;SDS011;22905;50.340;10.776;2023-07-22T00:26:58;10.05;;;5.32;;
36995;SDS011;22905;50.340;10.776;2023-07-22T00:31:58;17.40;;;5.97;;
36995;SDS011;22905;50.340;10.776;2023-07-22T00:36:58;15.32;;;6.30;;
36995;SDS011;22905;50.340;10.776;2023-07-22T00:41:59;17.43;;;6.70;;
36995;SDS011;22905;50.340;10.776;2023-07-22T00:46:59;23.50;;;7.93;;
36995;SDS011;22905;50.340;10.776;2023-07-22T00:52:01;22.83;;;7.38;;
36995;SDS011;22905;50.340;10.776;2023-07-22T00:57:02;12.70;;;6.00;;
36995;SDS011;22905;50.340;10.776;2023-07-22T01:02:02;13.95;;;6.57;;
36995;SDS011;22905;50.340;10.776;2023-07-22T01:07:04;17.90;;;6.72;;
36995;SDS011;22905;50.340;10.776;2023-07-22T01:12:08;21.42;;;6.95;;
36995;SDS011;22905;50.340;10.776;2023-07-22T01:17:10;24.88;;;8.02;;
36995;SDS011;22905;50.340;10.776;2023-07-22T01:22:10;15.57;;;6.15;;
36995;SDS011;22905;50.340;10.776;2023-07-22T01:27:12;13.37;;;7.00;;
36995;SDS011;22905;50.340;10.776;2023-07-22T01:32:14;12.90;;;6.65;;
36995;SDS011;22905;50.340;10.776;2023-07-22T01:37:14;13.27;;;7.03;;
36995;SDS011;22905;50.340;10.776;2023-07-22T01:42:14;8.98;;;7.25;;
36995;SDS011;22905;50.340;10.776;2023-07-22T01:47:15;13.98;;;7.20;;
36995;SDS011;22905;50.340;10.776;2023-07-22T01:52:15;12.97;;;6.50;;
36995;SDS011;22905;50.340;10.776;2023-07-22T01:57:15;14.50;;;6.50;;
36995;SDS011;22905;50.340;10.776;2023-07-22T02:02:15;16.30;;;6.38;;
36995;SDS011;22905;50.340;10.776;2023-07-22T02:07:16;13.77;;;6.57;;
36995;SDS011;22905;50.340;10.776;2023-07-22T02:12:16;22.08;;;6.25;;
36995;SDS011;22905;50.340;10.776;2023-07-22T02:23:13;12.48;;;7.05;;
36995;SDS011;22905;50.340;10.776;2023-07-22T02:28:14;10.40;;;6.93;;
36995;SDS011;22905;50.340;10.776;2023-07-22T02:33:15;10.60;;;5.97;;
36995;SDS011;22905;50.340;10.776;2023-07-22T02:38:16;12.57;;;6.10;;
36995;SDS011;22905;50.340;10.776;2023-07-22T02:43:16;10.37;;;6.60;;
36995;SDS011;22905;50.340;10.776;2023-07-22T02:48:16;14.07;;;7.20;;
36995;SDS011;22905;50.340;10.776;2023-07-22T02:53:17;15.20;;;6.97;;
36995;SDS011;22905;50.340;10.776;2023-07-22T02:58:17;11.82;;;6.50;;
36995;SDS011;22905;50.340;10.776;2023-07-22T03:03:17;19.35;;;7.32;;
36995;SDS011;22905;50.340;10.776;2023-07-22T03:08:19;13.40;;;6.53;;
36995;SDS011;22905;50.340;10.776;2023-07-22T03:13:19;13.15;;;6.10;;
36995;SDS011;22905;50.340;10.776;2023-07-22T03:18:19;9.77;;;6.27;;
36995;SDS011;22905;50.340;10.776;2023-07-22T03:23:19;9.13;;;5.63;;
36995;SDS011;22905;50.340;10.776;2023-07-22T03:28:20;14.90;;;6.53;;
36995;SDS011;22905;50.340;10.776;2023-07-22T03:33:20;19.07;;;7.10;;
36995;SDS011;22905;50.340;10.776;2023-07-22T03:38:20;8.48;;;5.15;;
36995;SDS011;22905;50.340;10.776;2023-07-22T03:43:21;10.10;;;6.75;;
36995;SDS011;22905;50.340;10.776;2023-07-22T03:48:21;14.63;;;6.60;;
36995;SDS011;22905;50.340;10.776;2023-07-22T03:53:21;10.63;;;6.47;;
36995;SDS011;22905;50.340;10.776;2023-07-22T03:58:22;9.60;;;6.30;;
36995;SDS011;22905;50.340;10.776;2023-07-22T04:03:22;10.07;;;4.95;;
36995;SDS011;22905;50.340;10.776;2023-07-22T04:08:22;5.93;;;4.00;;
36995;SDS011;22905;50.340;10.776;2023-07-22T04:13:23;6.43;;;4.30;;
36995;SDS011;22905;50.340;10.776;2023-07-22T04:18:25;8.77;;;4.90;;
36995;SDS011;22905;50.340;10.776;2023-07-22T04:23:25;6.27;;;4.53;;
36995;SDS011;22905;50.340;10.776;2023-07-22T04:28:26;13.50;;;5.82;;
36995;SDS011;22905;50.340;10.776;2023-07-22T04:33:26;9.68;;;7.60;;
36995;SDS011;22905;50.340;10.776;2023-07-22T04:38:28;15.95;;;7.75;;
36995;SDS011;22905;50.340;10.776;2023-07-22T04:43:28;12.93;;;8.07;;
36995;SDS011;22905;50.340;10.776;2023-07-22T04:48:29;11.43;;;7.63;;
36995;SDS011;22905;50.340;10.776;2023-07-22T04:53:29;7.97;;;5.90;;
36995;SDS011;22905;50.340;10.776;2023-07-22T04:58:33;12.32;;;5.15;;
36995;SDS011;22905;50.340;10.776;2023-07-22T05:03:33;8.13;;;4.30;;
36995;SDS011;22905;50.340;10.776;2023-07-22T05:08:34;6.18;;;4.45;;
36995;SDS011;22905;50.340;10.776;2023-07-22T05:13:34;14.40;;;5.25;;
36995;SDS011;22905;50.340;10.776;2023-07-22T05:18:34;12.57;;;5.85;;
36995;SDS011;22905;50.340;10.776;2023-07-22T05:23:35;10.07;;;6.35;;
36995;SDS011;22905;50.340;10.776;2023-07-22T05:28:35;7.70;;;4.70;;
36995;SDS011;22905;50.340;10.776;2023-07-22T05:33:35;19.10;;;6.43;;
36995;SDS011;22905;50.340;10.776;2023-07-22T05:38:37;14.88;;;7.32;;
36995;SDS011;22905;50.340;10.776;2023-07-22T05:43:37;9.10;;;7.22;;
36995;SDS011;22905;50.340;10.776;2023-07-22T05:48:38;16.70;;;9.88;;
36995;SDS011;22905;50.340;10.776;2023-07-22T05:53:38;12.53;;;8.53;;
36995;SDS011;22905;50.340;10.776;2023-07-22T05:58:39;18.20;;;8.93;;
36995;SDS011;22905;50.340;10.776;2023-07-22T06:03:39;10.55;;;7.50;;
36995;SDS011;22905;50.340;10.776;2023-07-22T06:08:40;12.00;;;7.87;;
36995;SDS011;22905;50.340;10.776;2023-07-22T06:13:40;15.02;;;8.27;;
36995;SDS011;22905;50.340;10.776;2023-07-22T06:18:40;16.88;;;9.18;;
36995;SDS011;22905;50.340;10.776;2023-07-22T06:23:41;14.47;;;8.20;;
36995;SDS011;22905;50.340;10.776;2023-07-22T06:28:41;14.90;;;9.45;;
36995;SDS011;22905;50.340;10.776;2023-07-22T06:33:42;9.90;;;7.60;;
36995;SDS011;22905;50.340;10.776;2023-07-22T06:38:42;11.75;;;7.43;;
36995;SDS011;22905;50.340;10.776;2023-07-22T06:43:43;11.23;;;7.20;;
36995;SDS011;22905;50.340;10.776;2023-07-22T06:48:43;8.90;;;6.33;;
36995;SDS011;22905;50.340;10.776;2023-07-22T06:53:44;11.93;;;7.50;;
36995;SDS011;22905;50.340;10.776;2023-07-22T06:58:44;9.15;;;6.80;;
36995;SDS011;22905;50.340;10.776;2023-07-22T07:03:44;14.60;;;7.50;;
36995;SDS011;22905;50.340;10.776;2023-07-22T07:08:45;12.10;;;6.65;;
36995;SDS011;22905;50.340;10.776;2023-07-22T07:13:45;12.20;;;7.63;;
36995;SDS011;22905;50.340;10.776;2023-07-22T07:18:45;10.83;;;7.20;;
36995;SDS011;22905;50.340;10.776;2023-07-22T07:23:49;8.20;;;6.55;;
36995;SDS011;22905;50.340;10.776;2023-07-22T07:28:50;10.68;;;6.90;;
36995;SDS011;22905;50.340;10.776;2023-07-22T07:33:51;12.93;;;7.67;;
36995;SDS011;22905;50.340;10.776;2023-07-22T07:38:52;17.55;;;7.65;;
36995;SDS011;22905;50.340;10.776;2023-07-22T07:43:52;12.23;;;6.90;;
36995;SDS011;22905;50.340;10.776;2023-07-22T07:48:53;15.98;;;7.13;;
36995;SDS011;22905;50.340;10.776;2023-07-22T07:58:55;10.88;;;7.20;;
36995;SDS011;22905;50.340;10.776;2023-07-22T08:03:55;16.53;;;7.37;;
36995;SDS011;22905;50.340;10.776;2023-07-22T08:08:56;9.93;;;6.10;;
36995;SDS011;22905;50.340;10.776;2023-07-22T08:13:56;11.32;;;6.22;;
36995;SDS011;22905;50.340;10.776;2023-07-22T08:18:57;10.43;;;6.40;;
36995;SDS011;22905;50.340;10.776;2023-07-22T08:23:57;16.02;;;6.82;;
36995;SDS011;22905;50.340;10.776;2023-07-22T08:28:57;9.38;;;6.95;;
36995;SDS011;22905;50.340;10.776;2023-07-22T08:33:58;10.55;;;7.55;;
36995;SDS011;22905;50.340;10.776;2023-07-22T08:38:58;14.05;;;7.45;;
36995;SDS011;22905;50.340;10.776;2023-07-22T08:43:59;9.13;;;6.60;;
36995;SDS011;22905;50.340;10.776;2023-07-22T08:49:00;10.93;;;5.60;;
36995;SDS011;22905;50.340;10.776;2023-07-22T08:54:00;5.63;;;4.68;;
36995;SDS011;22905;50.340;10.776;2023-07-22T08:59:02;10.68;;;4.80;;
36995;SDS011;22905;50.340;10.776;2023-07-22T09:04:03;6.47;;;5.00;;
36995;SDS011;22905;50.340;10.776;2023-07-22T09:09:03;9.07;;;5.25;;
36995;SDS011;22905;50.340;10.776;2023-07-22T09:14:08;7.72;;;5.30;;
36995;SDS011;22905;50.340;10.776;2023-07-22T09:19:09;11.77;;;5.55;;
36995;SDS011;22905;50.340;10.776;2023-07-22T09:24:19;7.43;;;5.10;;
36995;SDS011;22905;50.340;10.776;2023-07-22T09:29:33;6.18;;;4.70;;
36995;SDS011;22905;50.340;10.776;2023-07-22T09:34:54;8.13;;;5.03;;
36995;SDS011;22905;50.340;10.776;2023-07-22T09:39:57;5.10;;;4.57;;
36995;SDS011;22905;50.340;10.776;2023-07-22T09:44:58;6.45;;;4.85;;
36995;SDS011;22905;50.340;10.776;2023-07-22T09:49:58;7.57;;;4.28;;
36995;SDS011;22905;50.340;10.776;2023-07-22T09:54:59;8.10;;;5.10;;
36995;SDS011;22905;50.340;10.776;2023-07-22T10:00:00;6.88;;;4.70;;
36995;SDS011;22905;50.340;10.776;2023-07-22T10:05:00;6.75;;;5.00;;
36995;SDS011;22905;50.340;10.776;2023-07-22T10:10:01;4.82;;;4.13;;
36995;SDS011;22905;50.340;10.776;2023-07-22T10:15:02;15.00;;;5.10;;
36995;SDS011;22905;50.340;10.776;2023-07-22T10:20:03;5.75;;;4.47;;
36995;SDS011;22905;50.340;10.776;2023-07-22T10:25:07;5.95;;;3.92;;
36995;SDS011;22905;50.340;10.776;2023-07-22T10:30:08;13.75;;;6.88;;
36995;SDS011;22905;50.340;10.776;2023-07-22T10:35:10;6.35;;;4.50;;
36995;SDS011;22905;50.340;10.776;2023-07-22T10:45:29;7.72;;;4.05;;
36995;SDS011;22905;50.340;10.776;2023-07-22T10:50:43;6.38;;;4.25;;
36995;SDS011;22905;50.340;10.776;2023-07-22T11:01:24;6.15;;;3.60;;
36995;SDS011;22905;50.340;10.776;2023-07-22T11:06:28;4.50;;;3.67;;
36995;SDS011;22905;50.340;10.776;2023-07-22T11:11:39;4.75;;;3.85;;
36995;SDS011;22905;50.340;10.776;2023-07-22T11:16:44;11.05;;;4.18;;
36995;SDS011;22905;50.340;10.776;2023-07-22T11:21:46;4.43;;;3.80;;
36995;SDS011;22905;50.340;10.776;2023-07-22T11:26:48;5.90;;;3.60;;
36995;SDS011;22905;50.340;10.776;2023-07-22T11:31:49;7.22;;;3.67;;
36995;SDS011;22905;50.340;10.776;2023-07-22T11:36:50;11.73;;;4.30;;
36995;SDS011;22905;50.340;10.776;2023-07-22T11:41:51;6.27;;;3.70;;
36995;SDS011;22905;50.340;10.776;2023-07-22T11:51:55;4.93;;;4.00;;
36995;SDS011;22905;50.340;10.776;2023-07-22T11:57:13;6.43;;;3.50;;
36995;SDS011;22905;50.340;10.776;2023-07-22T12:02:15;4.57;;;3.58;;
36995;SDS011;22905;50.340;10.776;2023-07-22T12:07:23;6.65;;;4.50;;
36995;SDS011;22905;50.340;10.776;2023-07-22T12:12:34;6.07;;;3.55;;
36995;SDS011;22905;50.340;10.776;2023-07-22T12:17:43;5.57;;;3.65;;
36995;SDS011;22905;50.340;10.776;2023-07-22T12:23:04;5.43;;;3.80;;
36995;SDS011;22905;50.340;10.776;2023-07-22T12:28:04;5.90;;;3.80;;
36995;SDS011;22905;50.340;10.776;2023-07-22T12:33:04;6.50;;;3.47;;
36995;SDS011;22905;50.340;10.776;2023-07-22T12:38:05;5.50;;;3.30;;
36995;SDS011;22905;50.340;10.776;2023-07-22T12:43:05;6.00;;;3.80;;
36995;SDS011;22905;50.340;10.776;2023-07-22T12:48:05;7.07;;;3.45;;
36995;SDS011;22905;50.340;10.776;2023-07-22T12:53:06;4.53;;;3.50;;
36995;SDS011;22905;50.340;10.776;2023-07-22T12:58:06;5.00;;;3.77;;
36995;SDS011;22905;50.340;10.776;2023-07-22T13:03:06;4.63;;;3.47;;
36995;SDS011;22905;50.340;10.776;2023-07-22T13:08:07;5.63;;;3.07;;
36995;SDS011;22905;50.340;10.776;2023-07-22T13:13:07;4.53;;;3.47;;
36995;SDS011;22905;50.340;10.776;2023-07-22T13:18:07;5.47;;;2.80;;
36995;SDS011;22905;50.340;10.776;2023-07-22T13:23:08;4.90;;;2.90;;
36995;SDS011;22905;50.340;10.776;2023-07-22T13:28:08;7.20;;;3.10;;
36995;SDS011;22905;50.340;10.776;2023-07-22T13:33:08;4.67;;;3.33;;
36995;SDS011;22905;50.340;10.776;2023-07-22T13:38:09;3.75;;;3.10;;
36995;SDS011;22905;50.340;10.776;2023-07-22T13:43:09;5.50;;;3.63;;
36995;SDS011;22905;50.340;10.776;2023-07-22T13:48:10;6.80;;;3.10;;
36995;SDS011;22905;50.340;10.776;2023-07-22T13:53:11;7.32;;;2.85;;
36995;SDS011;22905;50.340;10.776;2023-07-22T13:58:11;5.95;;;3.08;;
36995;SDS011;22905;50.340;10.776;2023-07-22T14:03:12;4.25;;;3.20;;
36995;SDS011;22905;50.340;10.776;2023-07-22T14:08:12;5.27;;;3.17;;
36995;SDS011;22905;50.340;10.776;2023-07-22T14:13:12;4.40;;;2.75;;
36995;SDS011;22905;50.340;10.776;2023-07-22T14:18:13;5.93;;;3.13;;
36995;SDS011;22905;50.340;10.776;2023-07-22T14:23:17;4.15;;;3.38;;
36995;SDS011;22905;50.340;10.776;2023-07-22T14:28:18;3.87;;;2.60;;
36995;SDS011;22905;50.340;10.776;2023-07-22T14:33:19;4.73;;;3.40;;
36995;SDS011;22905;50.340;10.776;2023-07-22T14:38:19;4.00;;;2.65;;
36995;SDS011;22905;50.340;10.776;2023-07-22T14:43:19;4.28;;;3.00;;
36995;SDS011;22905;50.340;10.776;2023-07-22T14:48:20;5.10;;;3.57;;
36995;SDS011;22905;50.340;10.776;2023-07-22T14:53:20;4.30;;;2.92;;
36995;SDS011;22905;50.340;10.776;2023-07-22T14:58:20;11.20;;;3.40;;
36995;SDS011;22905;50.340;10.776;2023-07-22T15:03:21;4.33;;;2.70;;
36995;SDS011;22905;50.340;10.776;2023-07-22T15:08:21;4.97;;;3.33;;
36995;SDS011;22905;50.340;10.776;2023-07-22T15:13:21;6.80;;;3.13;;
36995;SDS011;22905;50.340;10.776;2023-07-22T15:18:22;9.43;;;2.95;;
36995;SDS011;22905;50.340;10.776;2023-07-22T15:23:23;4.10;;;3.27;;
36995;SDS011;22905;50.340;10.776;2023-07-22T15:28:23;7.27;;;2.83;;
36995;SDS011;22905;50.340;10.776;2023-07-22T15:33:24;3.53;;;2.95;;
36995;SDS011;22905;50.340;10.776;2023-07-22T15:38:25;6.43;;;3.00;;
36995;SDS011;22905;50.340;10.776;2023-07-22T15:43:26;4.20;;;2.70;;
36995;SDS011;22905;50.340;10.776;2023-07-22T15:48:27;6.10;;;2.78;;
36995;SDS011;22905;50.340;10.776;2023-07-22T15:53:27;5.77;;;3.17;;
36995;SDS011;22905;50.340;10.776;2023-07-22T15:58:27;4.00;;;2.83;;
36995;SDS011;22905;50.340;10.776;2023-07-22T16:03:28;6.10;;;3.23;;
36995;SDS011;22905;50.340;10.776;2023-07-22T16:08:28;6.30;;;3.07;;
36995;SDS011;22905;50.340;10.776;2023-07-22T16:13:32;3.58;;;2.63;;
36995;SDS011;22905;50.340;10.776;2023-07-22T16:18:32;8.30;;;2.97;;
36995;SDS011;22905;50.340;10.776;2023-07-22T16:23:33;6.57;;;3.15;;
36995;SDS011;22905;50.340;10.776;2023-07-22T16:28:33;4.73;;;3.10;;
36995;SDS011;22905;50.340;10.776;2023-07-22T16:33:33;7.20;;;2.97;;
36995;SDS011;22905;50.340;10.776;2023-07-22T16:38:34;4.22;;;2.72;;
36995;SDS011;22905;50.340;10.776;2023-07-22T16:43:34;7.80;;;3.47;;
36995;SDS011;22905;50.340;10.776;2023-07-22T16:48:34;8.57;;;3.25;;
36995;SDS011;22905;50.340;10.776;2023-07-22T16:53:35;4.30;;;3.07;;
36995;SDS011;22905;50.340;10.776;2023-07-22T16:58:35;7.20;;;3.20;;
36995;SDS011;22905;50.340;10.776;2023-07-22T17:03:35;5.10;;;3.00;;
36995;SDS011;22905;50.340;10.776;2023-07-22T17:08:36;6.13;;;2.70;;
36995;SDS011;22905;50.340;10.776;2023-07-22T17:13:36;5.95;;;3.08;;
36995;SDS011;22905;50.340;10.776;2023-07-22T17:18:36;5.17;;;2.73;;
36995;SDS011;22905;50.340;10.776;2023-07-22T17:23:39;4.80;;;2.92;;
36995;SDS011;22905;50.340;10.776;2023-07-22T17:28:40;5.15;;;3.20;;
36995;SDS011;22905;50.340;10.776;2023-07-22T17:33:40;3.45;;;2.75;;
36995;SDS011;22905;50.340;10.776;2023-07-22T17:38:41;7.18;;;2.63;;
36995;SDS011;22905;50.340;10.776;2023-07-22T17:43:41;5.37;;;3.50;;
36995;SDS011;22905;50.340;10.776;2023-07-22T17:48:41;5.15;;;3.22;;
36995;SDS011;22905;50.340;10.776;2023-07-22T17:53:42;3.35;;;2.65;;
36995;SDS011;22905;50.340;10.776;2023-07-22T17:58:42;6.55;;;3.15;;
36995;SDS011;22905;50.340;10.776;2023-07-22T18:03:42;4.87;;;2.83;;
36995;SDS011;22905;50.340;10.776;2023-07-22T18:08:43;3.88;;;2.80;;
36995;SDS011;22905;50.340;10.776;2023-07-22T18:13:43;7.20;;;2.97;;
36995;SDS011;22905;50.340;10.776;2023-07-22T18:18:44;3.37;;;2.70;;
36995;SDS011;22905;50.340;10.776;2023-07-22T18:23:44;6.82;;;2.65;;
36995;SDS011;22905;50.340;10.776;2023-07-22T18:28:44;5.23;;;2.97;;
36995;SDS011;22905;50.340;10.776;2023-07-22T18:33:46;5.80;;;3.17;;
36995;SDS011;22905;50.340;10.776;2023-07-22T18:38:47;3.85;;;2.63;;
36995;SDS011;22905;50.340;10.776;2023-07-22T18:43:48;3.88;;;2.97;;
36995;SDS011;22905;50.340;10.776;2023-07-22T18:48:48;5.18;;;3.00;;
36995;SDS011;22905;50.340;10.776;2023-07-22T18:53:48;6.00;;;2.95;;
36995;SDS011;22905;50.340;10.776;2023-07-22T18:58:49;5.90;;;3.55;;
36995;SDS011;22905;50.340;10.776;2023-07-22T19:03:50;6.55;;;2.92;;
36995;SDS011;22905;50.340;10.776;2023-07-22T19:08:50;6.47;;;3.67;;
36995;SDS011;22905;50.340;10.776;2023-07-22T19:13:50;6.70;;;3.30;;
36995;SDS011;22905;50.340;10.776;2023-07-22T19:18:51;5.10;;;2.90;;
36995;SDS011;22905;50.340;10.776;2023-07-22T19:23:51;6.93;;;3.42;;
36995;SDS011;22905;50.340;10.776;2023-07-22T19:28:51;6.28;;;2.90;;
36995;SDS011;22905;50.340;10.776;2023-07-22T19:33:52;5.85;;;3.10;;
36995;SDS011;22905;50.340;10.776;2023-07-22T19:38:52;4.03;;;3.13;;
36995;SDS011;22905;50.340;10.776;2023-07-22T19:43:52;4.55;;;3.38;;
36995;SDS011;22905;50.340;10.776;2023-07-22T19:48:52;6.60;;;3.28;;
36995;SDS011;22905;50.340;10.776;2023-07-22T19:53:53;5.32;;;3.58;;
36995;SDS011;22905;50.340;10.776;2023-07-22T19:58:53;5.90;;;3.83;;
36995;SDS011;22905;50.340;10.776;2023-07-22T20:03:54;7.25;;;4.78;;
36995;SDS011;22905;50.340;10.776;2023-07-22T20:08:54;9.32;;;6.22;;
36995;SDS011;22905;50.340;10.776;2023-07-22T20:13:54;8.02;;;5.32;;
36995;SDS011;22905;50.340;10.776;2023-07-22T20:18:55;8.02;;;5.68;;
36995;SDS011;22905;50.340;10.776;2023-07-22T20:23:56;24.07;;;5.80;;
36995;SDS011;22905;50.340;10.776;2023-07-22T20:28:56;14.38;;;6.82;;
36995;SDS011;22905;50.340;10.776;2023-07-22T20:33:56;9.98;;;5.95;;
36995;SDS011;22905;50.340;10.776;2023-07-22T20:38:59;9.23;;;5.95;;
36995;SDS011;22905;50.340;10.776;2023-07-22T20:43:59;10.65;;;5.43;;
36995;SDS011;22905;50.340;10.776;2023-07-22T20:48:59;9.70;;;5.13;;
36995;SDS011;22905;50.340;10.776;2023-07-22T20:54:00;10.73;;;4.88;;
36995;SDS011;22905;50.340;10.776;2023-07-22T20:59:00;7.05;;;4.38;;
36995;SDS011;22905;50.340;10.776;2023-07-22T21:04:02;8.05;;;4.10;;
36995;SDS011;22905;50.340;10.776;2023-07-22T21:09:03;13.53;;;4.93;;
36995;SDS011;22905;50.340;10.776;2023-07-22T21:14:03;7.53;;;3.92;;
36995;SDS011;22905;50.340;10.776;2023-07-22T21:19:04;5.45;;;3.90;;
36995;SDS011;22905;50.340;10.776;2023-07-22T21:24:04;8.60;;;4.90;;
36995;SDS011;22905;50.340;10.776;2023-07-22T21:29:05;8.63;;;5.00;;
36995;SDS011;22905;50.340;10.776;2023-07-22T21:34:05;10.80;;;5.35;;
36995;SDS011;22905;50.340;10.776;2023-07-22T21:39:05;9.27;;;5.00;;
36995;SDS011;22905;50.340;10.776;2023-07-22T21:44:06;12.65;;;6.15;;
36995;SDS011;22905;50.340;10.776;2023-07-22T21:49:06;8.40;;;5.35;;
36995;SDS011;22905;50.340;10.776;2023-07-22T21:54:06;7.70;;;4.90;;
36995;SDS011;22905;50.340;10.776;2023-07-22T21:59:07;7.83;;;5.23;;
36995;SDS011;22905;50.340;10.776;2023-07-22T22:04:07;6.38;;;4.38;;
36995;SDS011;22905;50.340;10.776;2023-07-22T22:09:07;7.03;;;4.20;;
36995;SDS011;22905;50.340;10.776;2023-07-22T22:14:09;9.23;;;4.80;;
36995;SDS011;22905;50.340;10.776;2023-07-22T22:19:10;9.02;;;5.18;;
36995;SDS011;22905;50.340;10.776;2023-07-22T22:24:10;6.68;;;4.72;;
36995;SDS011;22905;50.340;10.776;2023-07-22T22:29:10;11.97;;;5.40;;
36995;SDS011;22905;50.340;10.776;2023-07-22T22:34:11;6.73;;;5.17;;
36995;SDS011;22905;50.340;10.776;2023-07-22T22:39:11;7.10;;;4.80;;
36995;SDS011;22905;50.340;10.776;2023-07-22T22:44:11;7.47;;;4.87;;
36995;SDS011;22905;50.340;10.776;2023-07-22T22:49:12;7.70;;;4.90;;
36995;SDS011;22905;50.340;10.776;2023-07-22T22:54:12;6.78;;;4.50;;
36995;SDS011;22905;50.340;10.776;2023-07-22T22:59:12;8.30;;;5.03;;
36995;SDS011;22905;50.340;10.776;2023-07-22T23:04:12;9.43;;;4.25;;
36995;SDS011;22905;50.340;10.776;2023-07-22T23:09:13;5.67;;;4.57;;
36995;SDS011;22905;50.340;10.776;2023-07-22T23:14:13;6.23;;;4.33;;
36995;SDS011;22905;50.340;10.776;2023-07-22T23:19:13;5.97;;;4.30;;
36995;SDS011;22905;50.340;10.776;2023-07-22T23:24:14;8.63;;;4.97;;
36995;SDS011;22905;50.340;10.776;2023-07-22T23:29:14;11.00;;;4.43;;
36995;SDS011;22905;50.340;10.776;2023-07-22T23:34:14;7.82;;;4.95;;
36995;SDS011;22905;50.340;10.776;2023-07-22T23:39:15;8.13;;;4.85;;
36995;SDS011;22905;50.340;10.776;2023-07-22T23:44:15;6.35;;;4.28;;
36995;SDS011;22905;50.340;10.776;2023-07-22T23:49:15;5.07;;;4.57;;
36995;SDS011;22905;50.340;10.776;2023-07-22T23:54:16;10.07;;;5.00;;
36995;SDS011;22905;50.340;10.776;2023-07-22T23:59:16;6.82;;;4.75;;
